sensor_id;sensor_type;location;lat;lon;timestamp;P1;durP1;ratioP1;P2;durP2;ratioP2
30307;SDS011;17114;52.314;8.910;2023-06-22T00:00:01;15.43;;;12.43;;
30307;SDS011;17114;52.314;8.910;2023-06-22T00:02:34;16.20;;;12.32;;
30307;SDS011;17114;52.314;8.910;2023-06-22T00:05:01;14.13;;;11.25;;
30307;SDS011;17114;52.314;8.910;2023-06-22T00:07:28;16.40;;;11.43;;
30307;SDS011;17114;52.314;8.910;2023-06-22T00:09:55;16.63;;;10.90;;
30307;SDS011;17114;52.314;8.910;2023-06-22T00:12:22;15.77;;;13.18;;
30307;SDS011;17114;52.314;8.910;2023-06-22T00:14:49;14.23;;;12.25;;
30307;SDS011;17114;52.314;8.910;2023-06-22T00:17:15;18.55;;;13.55;;
30307;SDS011;17114;52.314;8.910;2023-06-22T00:19:42;16.20;;;12.23;;
30307;SDS011;17114;52.314;8.910;2023-06-22T00:22:10;16.23;;;12.57;;
30307;SDS011;17114;52.314;8.910;2023-06-22T00:24:37;17.38;;;12.50;;
30307;SDS011;17114;52.314;8.910;2023-06-22T00:27:04;14.50;;;12.13;;
30307;SDS011;17114;52.314;8.910;2023-06-22T00:29:32;21.30;;;13.82;;
30307;SDS011;17114;52.314;8.910;2023-06-22T00:31:58;22.15;;;14.73;;
30307;SDS011;17114;52.314;8.910;2023-06-22T00:34:25;13.52;;;10.20;;
30307;SDS011;17114;52.314;8.910;2023-06-22T00:36:52;15.55;;;12.50;;
30307;SDS011;17114;52.314;8.910;2023-06-22T00:39:19;16.13;;;13.43;;
30307;SDS011;17114;52.314;8.910;2023-06-22T00:41:46;13.90;;;11.98;;
30307;SDS011;17114;52.314;8.910;2023-06-22T00:44:13;18.95;;;12.25;;
30307;SDS011;17114;52.314;8.910;2023-06-22T00:46:39;13.50;;;10.32;;
30307;SDS011;17114;52.314;8.910;2023-06-22T00:49:06;21.80;;;13.95;;
30307;SDS011;17114;52.314;8.910;2023-06-22T00:51:33;17.92;;;11.23;;
30307;SDS011;17114;52.314;8.910;2023-06-22T00:54:04;19.52;;;12.20;;
30307;SDS011;17114;52.314;8.910;2023-06-22T00:56:32;14.43;;;12.05;;
30307;SDS011;17114;52.314;8.910;2023-06-22T00:58:58;16.08;;;12.23;;
30307;SDS011;17114;52.314;8.910;2023-06-22T01:01:29;17.00;;;11.57;;
30307;SDS011;17114;52.314;8.910;2023-06-22T01:03:56;12.90;;;10.45;;
30307;SDS011;17114;52.314;8.910;2023-06-22T01:06:26;16.73;;;13.18;;
30307;SDS011;17114;52.314;8.910;2023-06-22T01:09:02;19.73;;;13.57;;
30307;SDS011;17114;52.314;8.910;2023-06-22T01:11:36;21.45;;;15.70;;
30307;SDS011;17114;52.314;8.910;2023-06-22T01:14:19;23.13;;;14.82;;
30307;SDS011;17114;52.314;8.910;2023-06-22T01:16:58;24.55;;;14.18;;
30307;SDS011;17114;52.314;8.910;2023-06-22T01:22:17;19.67;;;13.10;;
30307;SDS011;17114;52.314;8.910;2023-06-22T01:29:58;21.08;;;14.15;;
30307;SDS011;17114;52.314;8.910;2023-06-22T01:32:32;19.35;;;14.68;;
30307;SDS011;17114;52.314;8.910;2023-06-22T01:35:01;16.60;;;12.98;;
30307;SDS011;17114;52.314;8.910;2023-06-22T01:37:32;16.60;;;11.85;;
30307;SDS011;17114;52.314;8.910;2023-06-22T01:40:00;17.17;;;12.57;;
30307;SDS011;17114;52.314;8.910;2023-06-22T01:42:30;15.20;;;11.63;;
30307;SDS011;17114;52.314;8.910;2023-06-22T01:44:58;19.13;;;14.02;;
30307;SDS011;17114;52.314;8.910;2023-06-22T01:47:26;17.67;;;11.90;;
30307;SDS011;17114;52.314;8.910;2023-06-22T01:49:54;17.58;;;13.07;;
30307;SDS011;17114;52.314;8.910;2023-06-22T01:52:21;24.05;;;14.73;;
30307;SDS011;17114;52.314;8.910;2023-06-22T01:54:48;25.17;;;15.05;;
30307;SDS011;17114;52.314;8.910;2023-06-22T01:57:15;23.20;;;15.52;;
30307;SDS011;17114;52.314;8.910;2023-06-22T01:59:46;23.95;;;14.90;;
30307;SDS011;17114;52.314;8.910;2023-06-22T02:02:19;26.00;;;15.82;;
30307;SDS011;17114;52.314;8.910;2023-06-22T02:04:57;20.83;;;15.00;;
30307;SDS011;17114;52.314;8.910;2023-06-22T02:07:31;26.65;;;15.30;;
30307;SDS011;17114;52.314;8.910;2023-06-22T02:10:03;18.65;;;13.88;;
30307;SDS011;17114;52.314;8.910;2023-06-22T02:12:36;23.00;;;13.38;;
30307;SDS011;17114;52.314;8.910;2023-06-22T02:15:04;31.77;;;17.13;;
30307;SDS011;17114;52.314;8.910;2023-06-22T02:17:33;32.65;;;18.42;;
30307;SDS011;17114;52.314;8.910;2023-06-22T02:20:01;28.02;;;15.95;;
30307;SDS011;17114;52.314;8.910;2023-06-22T02:22:32;24.75;;;15.35;;
30307;SDS011;17114;52.314;8.910;2023-06-22T02:24:59;25.70;;;14.90;;
30307;SDS011;17114;52.314;8.910;2023-06-22T02:27:26;29.77;;;18.15;;
30307;SDS011;17114;52.314;8.910;2023-06-22T02:29:52;31.88;;;17.25;;
30307;SDS011;17114;52.314;8.910;2023-06-22T02:32:19;27.13;;;17.83;;
30307;SDS011;17114;52.314;8.910;2023-06-22T02:34:46;26.48;;;14.13;;
30307;SDS011;17114;52.314;8.910;2023-06-22T02:37:14;20.55;;;12.43;;
30307;SDS011;17114;52.314;8.910;2023-06-22T02:39:41;20.90;;;13.70;;
30307;SDS011;17114;52.314;8.910;2023-06-22T02:42:08;24.27;;;14.80;;
30307;SDS011;17114;52.314;8.910;2023-06-22T02:44:37;26.27;;;13.93;;
30307;SDS011;17114;52.314;8.910;2023-06-22T02:47:03;20.35;;;13.95;;
30307;SDS011;17114;52.314;8.910;2023-06-22T02:49:31;25.92;;;14.68;;
30307;SDS011;17114;52.314;8.910;2023-06-22T02:52:01;24.50;;;15.75;;
30307;SDS011;17114;52.314;8.910;2023-06-22T02:54:28;25.65;;;15.95;;
30307;SDS011;17114;52.314;8.910;2023-06-22T02:56:55;26.63;;;14.98;;
30307;SDS011;17114;52.314;8.910;2023-06-22T02:59:21;25.02;;;15.18;;
30307;SDS011;17114;52.314;8.910;2023-06-22T03:01:50;23.20;;;14.23;;
30307;SDS011;17114;52.314;8.910;2023-06-22T03:04:17;22.83;;;12.88;;
30307;SDS011;17114;52.314;8.910;2023-06-22T03:06:44;20.98;;;13.10;;
30307;SDS011;17114;52.314;8.910;2023-06-22T03:09:17;21.65;;;14.30;;
30307;SDS011;17114;52.314;8.910;2023-06-22T03:11:43;18.17;;;13.63;;
30307;SDS011;17114;52.314;8.910;2023-06-22T03:14:10;28.48;;;15.32;;
30307;SDS011;17114;52.314;8.910;2023-06-22T03:16:37;19.65;;;13.80;;
30307;SDS011;17114;52.314;8.910;2023-06-22T03:19:04;21.30;;;15.00;;
30307;SDS011;17114;52.314;8.910;2023-06-22T03:21:31;22.67;;;16.92;;
30307;SDS011;17114;52.314;8.910;2023-06-22T03:23:58;26.83;;;17.55;;
30307;SDS011;17114;52.314;8.910;2023-06-22T03:26:25;20.45;;;16.70;;
30307;SDS011;17114;52.314;8.910;2023-06-22T03:28:53;23.73;;;14.00;;
30307;SDS011;17114;52.314;8.910;2023-06-22T03:31:20;29.58;;;17.73;;
30307;SDS011;17114;52.314;8.910;2023-06-22T03:33:48;21.20;;;12.60;;
30307;SDS011;17114;52.314;8.910;2023-06-22T03:36:16;22.55;;;15.57;;
30307;SDS011;17114;52.314;8.910;2023-06-22T03:38:47;25.88;;;17.73;;
30307;SDS011;17114;52.314;8.910;2023-06-22T03:41:15;25.35;;;17.15;;
30307;SDS011;17114;52.314;8.910;2023-06-22T03:43:45;24.73;;;17.85;;
30307;SDS011;17114;52.314;8.910;2023-06-22T03:46:11;25.02;;;18.35;;
30307;SDS011;17114;52.314;8.910;2023-06-22T03:48:38;22.67;;;15.88;;
30307;SDS011;17114;52.314;8.910;2023-06-22T03:51:05;24.20;;;17.33;;
30307;SDS011;17114;52.314;8.910;2023-06-22T03:53:32;22.23;;;15.85;;
30307;SDS011;17114;52.314;8.910;2023-06-22T03:55:59;23.85;;;14.88;;
30307;SDS011;17114;52.314;8.910;2023-06-22T03:58:26;28.75;;;17.98;;
30307;SDS011;17114;52.314;8.910;2023-06-22T04:00:54;29.80;;;18.85;;
30307;SDS011;17114;52.314;8.910;2023-06-22T04:03:20;27.55;;;19.25;;
30307;SDS011;17114;52.314;8.910;2023-06-22T04:05:48;25.50;;;19.02;;
30307;SDS011;17114;52.314;8.910;2023-06-22T04:08:15;25.23;;;18.17;;
30307;SDS011;17114;52.314;8.910;2023-06-22T04:10:42;30.13;;;19.00;;
30307;SDS011;17114;52.314;8.910;2023-06-22T04:13:09;27.42;;;18.88;;
30307;SDS011;17114;52.314;8.910;2023-06-22T04:15:36;28.60;;;19.20;;
30307;SDS011;17114;52.314;8.910;2023-06-22T04:18:03;26.20;;;18.50;;
30307;SDS011;17114;52.314;8.910;2023-06-22T04:20:31;23.05;;;18.70;;
30307;SDS011;17114;52.314;8.910;2023-06-22T04:22:58;22.67;;;16.60;;
30307;SDS011;17114;52.314;8.910;2023-06-22T04:25:25;24.58;;;17.02;;
30307;SDS011;17114;52.314;8.910;2023-06-22T04:27:52;25.55;;;17.65;;
30307;SDS011;17114;52.314;8.910;2023-06-22T04:30:19;30.55;;;18.55;;
30307;SDS011;17114;52.314;8.910;2023-06-22T04:32:46;18.98;;;15.88;;
30307;SDS011;17114;52.314;8.910;2023-06-22T04:35:23;20.92;;;16.83;;
30307;SDS011;17114;52.314;8.910;2023-06-22T04:37:50;21.35;;;15.88;;
30307;SDS011;17114;52.314;8.910;2023-06-22T04:40:22;20.05;;;16.02;;
30307;SDS011;17114;52.314;8.910;2023-06-22T04:42:49;27.42;;;16.00;;
30307;SDS011;17114;52.314;8.910;2023-06-22T04:45:19;21.50;;;16.00;;
30307;SDS011;17114;52.314;8.910;2023-06-22T04:47:47;18.38;;;14.55;;
30307;SDS011;17114;52.314;8.910;2023-06-22T04:50:14;19.40;;;15.75;;
30307;SDS011;17114;52.314;8.910;2023-06-22T04:52:41;19.20;;;14.75;;
30307;SDS011;17114;52.314;8.910;2023-06-22T04:55:08;20.58;;;14.75;;
30307;SDS011;17114;52.314;8.910;2023-06-22T04:57:35;20.90;;;14.57;;
30307;SDS011;17114;52.314;8.910;2023-06-22T05:00:05;21.05;;;13.10;;
30307;SDS011;17114;52.314;8.910;2023-06-22T05:02:39;16.48;;;12.82;;
30307;SDS011;17114;52.314;8.910;2023-06-22T05:05:07;14.25;;;11.63;;
30307;SDS011;17114;52.314;8.910;2023-06-22T05:07:35;14.80;;;11.23;;
30307;SDS011;17114;52.314;8.910;2023-06-22T05:10:02;16.02;;;10.88;;
30307;SDS011;17114;52.314;8.910;2023-06-22T05:12:30;15.23;;;9.95;;
30307;SDS011;17114;52.314;8.910;2023-06-22T05:14:57;13.45;;;9.90;;
30307;SDS011;17114;52.314;8.910;2023-06-22T05:17:24;11.77;;;9.57;;
30307;SDS011;17114;52.314;8.910;2023-06-22T05:19:51;15.50;;;9.57;;
30307;SDS011;17114;52.314;8.910;2023-06-22T05:22:19;14.40;;;10.40;;
30307;SDS011;17114;52.314;8.910;2023-06-22T05:24:45;14.07;;;9.23;;
30307;SDS011;17114;52.314;8.910;2023-06-22T05:27:13;10.95;;;9.00;;
30307;SDS011;17114;52.314;8.910;2023-06-22T05:29:40;12.15;;;9.23;;
30307;SDS011;17114;52.314;8.910;2023-06-22T05:32:08;12.93;;;9.55;;
30307;SDS011;17114;52.314;8.910;2023-06-22T05:34:36;12.52;;;9.48;;
30307;SDS011;17114;52.314;8.910;2023-06-22T05:37:03;14.10;;;9.40;;
30307;SDS011;17114;52.314;8.910;2023-06-22T05:39:30;12.45;;;10.40;;
30307;SDS011;17114;52.314;8.910;2023-06-22T05:41:57;11.38;;;8.63;;
30307;SDS011;17114;52.314;8.910;2023-06-22T05:44:24;10.38;;;9.00;;
30307;SDS011;17114;52.314;8.910;2023-06-22T05:46:51;10.15;;;9.15;;
30307;SDS011;17114;52.314;8.910;2023-06-22T05:49:18;11.93;;;10.10;;
30307;SDS011;17114;52.314;8.910;2023-06-22T05:51:45;13.38;;;10.80;;
30307;SDS011;17114;52.314;8.910;2023-06-22T05:54:15;14.77;;;11.27;;
30307;SDS011;17114;52.314;8.910;2023-06-22T05:56:44;13.18;;;10.98;;
30307;SDS011;17114;52.314;8.910;2023-06-22T05:59:11;13.80;;;11.63;;
30307;SDS011;17114;52.314;8.910;2023-06-22T06:01:38;13.48;;;12.10;;
30307;SDS011;17114;52.314;8.910;2023-06-22T06:04:06;13.82;;;11.95;;
30307;SDS011;17114;52.314;8.910;2023-06-22T06:06:36;12.75;;;11.45;;
30307;SDS011;17114;52.314;8.910;2023-06-22T06:09:04;12.65;;;11.35;;
30307;SDS011;17114;52.314;8.910;2023-06-22T06:11:31;14.35;;;12.85;;
30307;SDS011;17114;52.314;8.910;2023-06-22T06:13:58;13.82;;;11.90;;
30307;SDS011;17114;52.314;8.910;2023-06-22T06:16:25;15.40;;;12.32;;
30307;SDS011;17114;52.314;8.910;2023-06-22T06:18:53;13.82;;;11.88;;
30307;SDS011;17114;52.314;8.910;2023-06-22T06:21:22;20.67;;;13.18;;
30307;SDS011;17114;52.314;8.910;2023-06-22T06:23:52;16.23;;;13.45;;
30307;SDS011;17114;52.314;8.910;2023-06-22T06:26:19;17.15;;;11.77;;
30307;SDS011;17114;52.314;8.910;2023-06-22T06:28:54;14.55;;;12.82;;
30307;SDS011;17114;52.314;8.910;2023-06-22T06:31:22;13.38;;;11.73;;
30307;SDS011;17114;52.314;8.910;2023-06-22T06:33:49;13.38;;;11.82;;
30307;SDS011;17114;52.314;8.910;2023-06-22T06:36:16;14.25;;;12.02;;
30307;SDS011;17114;52.314;8.910;2023-06-22T06:38:44;14.13;;;12.65;;
30307;SDS011;17114;52.314;8.910;2023-06-22T06:41:15;16.70;;;11.68;;
30307;SDS011;17114;52.314;8.910;2023-06-22T06:43:43;13.68;;;12.27;;
30307;SDS011;17114;52.314;8.910;2023-06-22T06:46:10;13.93;;;12.50;;
30307;SDS011;17114;52.314;8.910;2023-06-22T06:48:37;14.77;;;13.25;;
30307;SDS011;17114;52.314;8.910;2023-06-22T06:51:03;15.18;;;13.35;;
30307;SDS011;17114;52.314;8.910;2023-06-22T06:53:30;15.00;;;13.50;;
30307;SDS011;17114;52.314;8.910;2023-06-22T06:55:57;17.02;;;14.75;;
30307;SDS011;17114;52.314;8.910;2023-06-22T06:58:27;15.43;;;13.93;;
30307;SDS011;17114;52.314;8.910;2023-06-22T07:00:54;15.32;;;13.50;;
30307;SDS011;17114;52.314;8.910;2023-06-22T07:03:21;15.88;;;14.20;;
30307;SDS011;17114;52.314;8.910;2023-06-22T07:05:49;14.93;;;13.15;;
30307;SDS011;17114;52.314;8.910;2023-06-22T07:08:15;16.98;;;13.77;;
30307;SDS011;17114;52.314;8.910;2023-06-22T07:10:43;15.55;;;13.65;;
30307;SDS011;17114;52.314;8.910;2023-06-22T07:13:10;18.80;;;14.30;;
30307;SDS011;17114;52.314;8.910;2023-06-22T07:15:37;15.32;;;13.70;;
30307;SDS011;17114;52.314;8.910;2023-06-22T07:18:04;16.50;;;12.98;;
30307;SDS011;17114;52.314;8.910;2023-06-22T07:20:31;15.25;;;13.70;;
30307;SDS011;17114;52.314;8.910;2023-06-22T07:23:01;15.38;;;13.77;;
30307;SDS011;17114;52.314;8.910;2023-06-22T07:25:28;19.52;;;16.08;;
30307;SDS011;17114;52.314;8.910;2023-06-22T07:27:59;16.73;;;14.88;;
30307;SDS011;17114;52.314;8.910;2023-06-22T07:30:31;19.73;;;15.50;;
30307;SDS011;17114;52.314;8.910;2023-06-22T07:33:00;18.20;;;14.85;;
30307;SDS011;17114;52.314;8.910;2023-06-22T07:35:30;21.05;;;14.60;;
30307;SDS011;17114;52.314;8.910;2023-06-22T07:37:57;17.92;;;15.95;;
30307;SDS011;17114;52.314;8.910;2023-06-22T07:40:24;19.83;;;15.32;;
30307;SDS011;17114;52.314;8.910;2023-06-22T07:42:51;18.80;;;15.82;;
30307;SDS011;17114;52.314;8.910;2023-06-22T07:45:18;21.70;;;17.35;;
30307;SDS011;17114;52.314;8.910;2023-06-22T07:47:45;19.45;;;17.27;;
30307;SDS011;17114;52.314;8.910;2023-06-22T07:50:12;19.88;;;16.05;;
30307;SDS011;17114;52.314;8.910;2023-06-22T07:52:39;18.90;;;14.85;;
30307;SDS011;17114;52.314;8.910;2023-06-22T07:55:06;18.58;;;16.23;;
30307;SDS011;17114;52.314;8.910;2023-06-22T07:57:33;19.70;;;17.52;;
30307;SDS011;17114;52.314;8.910;2023-06-22T08:00:01;17.92;;;15.63;;
30307;SDS011;17114;52.314;8.910;2023-06-22T08:02:35;19.73;;;16.23;;
30307;SDS011;17114;52.314;8.910;2023-06-22T08:05:02;20.20;;;16.38;;
30307;SDS011;17114;52.314;8.910;2023-06-22T08:07:46;19.45;;;16.20;;
30307;SDS011;17114;52.314;8.910;2023-06-22T08:10:14;22.30;;;16.55;;
30307;SDS011;17114;52.314;8.910;2023-06-22T08:12:42;18.67;;;16.65;;
30307;SDS011;17114;52.314;8.910;2023-06-22T08:15:09;20.30;;;18.17;;
30307;SDS011;17114;52.314;8.910;2023-06-22T08:17:37;17.95;;;16.02;;
30307;SDS011;17114;52.314;8.910;2023-06-22T08:20:05;20.45;;;17.08;;
30307;SDS011;17114;52.314;8.910;2023-06-22T08:22:41;19.15;;;16.73;;
30307;SDS011;17114;52.314;8.910;2023-06-22T08:25:10;21.75;;;18.38;;
30307;SDS011;17114;52.314;8.910;2023-06-22T08:27:37;20.88;;;17.35;;
30307;SDS011;17114;52.314;8.910;2023-06-22T08:30:05;21.33;;;17.83;;
30307;SDS011;17114;52.314;8.910;2023-06-22T08:32:34;20.10;;;17.85;;
30307;SDS011;17114;52.314;8.910;2023-06-22T08:35:01;20.10;;;17.33;;
30307;SDS011;17114;52.314;8.910;2023-06-22T08:37:28;19.88;;;17.30;;
30307;SDS011;17114;52.314;8.910;2023-06-22T08:40:03;19.63;;;17.23;;
30307;SDS011;17114;52.314;8.910;2023-06-22T08:42:36;19.88;;;17.77;;
30307;SDS011;17114;52.314;8.910;2023-06-22T08:45:05;17.88;;;15.98;;
30307;SDS011;17114;52.314;8.910;2023-06-22T08:47:33;21.88;;;18.95;;
30307;SDS011;17114;52.314;8.910;2023-06-22T08:50:00;21.48;;;17.75;;
30307;SDS011;17114;52.314;8.910;2023-06-22T08:52:29;24.27;;;19.92;;
30307;SDS011;17114;52.314;8.910;2023-06-22T08:54:56;22.15;;;18.55;;
30307;SDS011;17114;52.314;8.910;2023-06-22T08:57:25;22.33;;;19.67;;
30307;SDS011;17114;52.314;8.910;2023-06-22T08:59:51;19.90;;;17.73;;
30307;SDS011;17114;52.314;8.910;2023-06-22T09:02:19;21.02;;;18.80;;
30307;SDS011;17114;52.314;8.910;2023-06-22T09:04:47;21.95;;;18.60;;
30307;SDS011;17114;52.314;8.910;2023-06-22T09:07:15;23.23;;;20.25;;
30307;SDS011;17114;52.314;8.910;2023-06-22T09:09:49;24.10;;;19.35;;
30307;SDS011;17114;52.314;8.910;2023-06-22T09:12:17;20.33;;;18.17;;
30307;SDS011;17114;52.314;8.910;2023-06-22T09:14:46;22.60;;;19.48;;
30307;SDS011;17114;52.314;8.910;2023-06-22T09:17:14;23.13;;;19.73;;
30307;SDS011;17114;52.314;8.910;2023-06-22T09:19:41;21.35;;;18.77;;
30307;SDS011;17114;52.314;8.910;2023-06-22T09:22:09;22.88;;;19.65;;
30307;SDS011;17114;52.314;8.910;2023-06-22T09:24:36;20.42;;;18.05;;
30307;SDS011;17114;52.314;8.910;2023-06-22T09:27:04;22.02;;;18.55;;
30307;SDS011;17114;52.314;8.910;2023-06-22T09:29:31;21.20;;;18.90;;
30307;SDS011;17114;52.314;8.910;2023-06-22T09:32:00;20.50;;;18.33;;
30307;SDS011;17114;52.314;8.910;2023-06-22T09:34:28;17.98;;;16.08;;
30307;SDS011;17114;52.314;8.910;2023-06-22T09:36:54;21.00;;;18.25;;
30307;SDS011;17114;52.314;8.910;2023-06-22T09:39:23;22.20;;;18.38;;
30307;SDS011;17114;52.314;8.910;2023-06-22T09:41:50;21.17;;;16.67;;
30307;SDS011;17114;52.314;8.910;2023-06-22T09:44:17;20.70;;;18.00;;
30307;SDS011;17114;52.314;8.910;2023-06-22T09:46:44;18.52;;;15.95;;
30307;SDS011;17114;52.314;8.910;2023-06-22T09:49:11;19.77;;;17.42;;
30307;SDS011;17114;52.314;8.910;2023-06-22T09:51:38;21.98;;;18.20;;
30307;SDS011;17114;52.314;8.910;2023-06-22T09:54:04;19.63;;;16.27;;
30307;SDS011;17114;52.314;8.910;2023-06-22T09:56:31;20.67;;;17.25;;
30307;SDS011;17114;52.314;8.910;2023-06-22T09:58:58;20.23;;;16.98;;
30307;SDS011;17114;52.314;8.910;2023-06-22T10:01:43;19.93;;;17.10;;
30307;SDS011;17114;52.314;8.910;2023-06-22T10:04:10;18.65;;;15.57;;
30307;SDS011;17114;52.314;8.910;2023-06-22T10:06:37;18.17;;;14.32;;
30307;SDS011;17114;52.314;8.910;2023-06-22T10:09:07;16.83;;;14.40;;
30307;SDS011;17114;52.314;8.910;2023-06-22T10:11:34;17.08;;;14.52;;
30307;SDS011;17114;52.314;8.910;2023-06-22T10:14:01;20.08;;;14.60;;
30307;SDS011;17114;52.314;8.910;2023-06-22T10:16:31;17.40;;;14.68;;
30307;SDS011;17114;52.314;8.910;2023-06-22T10:18:58;18.02;;;14.80;;
30307;SDS011;17114;52.314;8.910;2023-06-22T10:21:25;17.33;;;14.40;;
30307;SDS011;17114;52.314;8.910;2023-06-22T10:23:54;18.15;;;13.48;;
30307;SDS011;17114;52.314;8.910;2023-06-22T10:26:21;17.52;;;12.73;;
30307;SDS011;17114;52.314;8.910;2023-06-22T10:28:49;15.48;;;12.88;;
30307;SDS011;17114;52.314;8.910;2023-06-22T10:31:25;15.13;;;13.13;;
30307;SDS011;17114;52.314;8.910;2023-06-22T10:33:54;16.63;;;13.02;;
30307;SDS011;17114;52.314;8.910;2023-06-22T10:36:21;15.43;;;13.18;;
30307;SDS011;17114;52.314;8.910;2023-06-22T10:38:48;15.70;;;12.85;;
30307;SDS011;17114;52.314;8.910;2023-06-22T10:41:15;14.98;;;12.15;;
30307;SDS011;17114;52.314;8.910;2023-06-22T10:43:43;14.07;;;12.57;;
30307;SDS011;17114;52.314;8.910;2023-06-22T10:46:09;14.15;;;11.95;;
30307;SDS011;17114;52.314;8.910;2023-06-22T10:48:36;16.02;;;11.88;;
30307;SDS011;17114;52.314;8.910;2023-06-22T10:51:03;15.57;;;12.43;;
30307;SDS011;17114;52.314;8.910;2023-06-22T10:53:30;14.57;;;12.93;;
30307;SDS011;17114;52.314;8.910;2023-06-22T10:55:57;16.63;;;12.77;;
30307;SDS011;17114;52.314;8.910;2023-06-22T10:58:25;18.48;;;12.65;;
30307;SDS011;17114;52.314;8.910;2023-06-22T11:00:52;13.05;;;10.57;;
30307;SDS011;17114;52.314;8.910;2023-06-22T11:03:19;11.82;;;10.23;;
30307;SDS011;17114;52.314;8.910;2023-06-22T11:05:46;11.52;;;10.25;;
30307;SDS011;17114;52.314;8.910;2023-06-22T11:08:14;11.15;;;9.75;;
30307;SDS011;17114;52.314;8.910;2023-06-22T11:10:41;12.27;;;9.07;;
30307;SDS011;17114;52.314;8.910;2023-06-22T11:13:08;10.60;;;9.60;;
30307;SDS011;17114;52.314;8.910;2023-06-22T11:15:38;10.05;;;8.60;;
30307;SDS011;17114;52.314;8.910;2023-06-22T11:18:05;11.35;;;8.60;;
30307;SDS011;17114;52.314;8.910;2023-06-22T11:20:33;9.48;;;8.43;;
30307;SDS011;17114;52.314;8.910;2023-06-22T11:23:05;9.57;;;8.57;;
30307;SDS011;17114;52.314;8.910;2023-06-22T11:25:34;9.02;;;8.15;;
30307;SDS011;17114;52.314;8.910;2023-06-22T11:28:02;8.65;;;7.78;;
30307;SDS011;17114;52.314;8.910;2023-06-22T11:30:30;10.38;;;7.85;;
30307;SDS011;17114;52.314;8.910;2023-06-22T11:32:58;8.73;;;7.78;;
30307;SDS011;17114;52.314;8.910;2023-06-22T11:35:25;10.90;;;7.88;;
30307;SDS011;17114;52.314;8.910;2023-06-22T11:37:52;9.07;;;7.47;;
30307;SDS011;17114;52.314;8.910;2023-06-22T11:40:19;10.07;;;7.90;;
30307;SDS011;17114;52.314;8.910;2023-06-22T11:42:46;9.65;;;7.90;;
30307;SDS011;17114;52.314;8.910;2023-06-22T11:45:13;8.82;;;7.40;;
30307;SDS011;17114;52.314;8.910;2023-06-22T11:47:40;7.82;;;7.05;;
30307;SDS011;17114;52.314;8.910;2023-06-22T11:50:07;9.40;;;8.00;;
30307;SDS011;17114;52.314;8.910;2023-06-22T11:52:34;8.55;;;7.40;;
30307;SDS011;17114;52.314;8.910;2023-06-22T11:55:04;8.25;;;6.85;;
30307;SDS011;17114;52.314;8.910;2023-06-22T11:57:33;11.63;;;7.22;;
30307;SDS011;17114;52.314;8.910;2023-06-22T12:00:01;9.90;;;7.60;;
30307;SDS011;17114;52.314;8.910;2023-06-22T12:02:32;8.32;;;6.93;;
30307;SDS011;17114;52.314;8.910;2023-06-22T12:04:59;8.68;;;7.78;;
30307;SDS011;17114;52.314;8.910;2023-06-22T12:07:26;9.45;;;7.60;;
30307;SDS011;17114;52.314;8.910;2023-06-22T12:09:53;10.73;;;7.50;;
30307;SDS011;17114;52.314;8.910;2023-06-22T12:12:19;9.07;;;7.72;;
30307;SDS011;17114;52.314;8.910;2023-06-22T12:14:46;11.40;;;7.18;;
30307;SDS011;17114;52.314;8.910;2023-06-22T12:17:13;10.23;;;6.45;;
30307;SDS011;17114;52.314;8.910;2023-06-22T12:19:40;7.32;;;6.63;;
30307;SDS011;17114;52.314;8.910;2023-06-22T12:22:07;8.25;;;7.45;;
30307;SDS011;17114;52.314;8.910;2023-06-22T12:24:34;8.20;;;7.15;;
30307;SDS011;17114;52.314;8.910;2023-06-22T12:27:01;8.70;;;7.13;;
30307;SDS011;17114;52.314;8.910;2023-06-22T12:29:29;8.32;;;7.40;;
30307;SDS011;17114;52.314;8.910;2023-06-22T12:31:56;8.50;;;6.88;;
30307;SDS011;17114;52.314;8.910;2023-06-22T12:34:23;8.90;;;7.40;;
30307;SDS011;17114;52.314;8.910;2023-06-22T12:36:50;10.00;;;6.85;;
30307;SDS011;17114;52.314;8.910;2023-06-22T12:39:16;10.07;;;7.05;;
30307;SDS011;17114;52.314;8.910;2023-06-22T12:41:43;8.55;;;7.32;;
30307;SDS011;17114;52.314;8.910;2023-06-22T12:44:10;8.85;;;7.95;;
30307;SDS011;17114;52.314;8.910;2023-06-22T12:46:37;8.95;;;7.22;;
30307;SDS011;17114;52.314;8.910;2023-06-22T12:49:04;9.27;;;7.57;;
30307;SDS011;17114;52.314;8.910;2023-06-22T12:51:31;9.18;;;7.22;;
30307;SDS011;17114;52.314;8.910;2023-06-22T12:53:58;9.10;;;7.22;;
30307;SDS011;17114;52.314;8.910;2023-06-22T12:56:25;11.65;;;7.07;;
30307;SDS011;17114;52.314;8.910;2023-06-22T12:58:52;10.63;;;8.18;;
30307;SDS011;17114;52.314;8.910;2023-06-22T13:01:18;8.82;;;7.68;;
30307;SDS011;17114;52.314;8.910;2023-06-22T13:03:45;11.95;;;7.50;;
30307;SDS011;17114;52.314;8.910;2023-06-22T13:06:12;8.52;;;7.25;;
30307;SDS011;17114;52.314;8.910;2023-06-22T13:08:39;10.25;;;7.85;;
30307;SDS011;17114;52.314;8.910;2023-06-22T13:11:09;11.32;;;8.35;;
30307;SDS011;17114;52.314;8.910;2023-06-22T13:13:36;10.52;;;8.02;;
30307;SDS011;17114;52.314;8.910;2023-06-22T13:16:03;13.40;;;8.60;;
30307;SDS011;17114;52.314;8.910;2023-06-22T13:18:30;12.07;;;8.77;;
30307;SDS011;17114;52.314;8.910;2023-06-22T13:20:57;11.57;;;8.57;;
30307;SDS011;17114;52.314;8.910;2023-06-22T13:23:26;12.13;;;9.00;;
30307;SDS011;17114;52.314;8.910;2023-06-22T13:25:52;10.57;;;8.40;;
30307;SDS011;17114;52.314;8.910;2023-06-22T13:28:19;10.90;;;8.93;;
30307;SDS011;17114;52.314;8.910;2023-06-22T13:30:54;12.23;;;10.30;;
30307;SDS011;17114;52.314;8.910;2023-06-22T13:33:21;11.07;;;9.80;;
30307;SDS011;17114;52.314;8.910;2023-06-22T13:35:47;14.60;;;10.75;;
30307;SDS011;17114;52.314;8.910;2023-06-22T13:38:14;13.45;;;11.15;;
30307;SDS011;17114;52.314;8.910;2023-06-22T13:40:41;12.15;;;10.82;;
30307;SDS011;17114;52.314;8.910;2023-06-22T13:43:08;16.50;;;11.95;;
30307;SDS011;17114;52.314;8.910;2023-06-22T13:45:35;13.88;;;11.50;;
30307;SDS011;17114;52.314;8.910;2023-06-22T13:48:02;15.88;;;13.50;;
30307;SDS011;17114;52.314;8.910;2023-06-22T13:50:29;19.25;;;14.48;;
30307;SDS011;17114;52.314;8.910;2023-06-22T13:52:56;16.77;;;14.25;;
30307;SDS011;17114;52.314;8.910;2023-06-22T13:55:23;18.48;;;14.32;;
30307;SDS011;17114;52.314;8.910;2023-06-22T13:57:50;18.08;;;15.60;;
30307;SDS011;17114;52.314;8.910;2023-06-22T14:00:18;18.95;;;15.60;;
30307;SDS011;17114;52.314;8.910;2023-06-22T14:02:45;19.08;;;15.13;;
30307;SDS011;17114;52.314;8.910;2023-06-22T14:05:12;20.60;;;15.05;;
30307;SDS011;17114;52.314;8.910;2023-06-22T14:07:39;18.08;;;13.95;;
30307;SDS011;17114;52.314;8.910;2023-06-22T14:10:07;19.13;;;17.00;;
30307;SDS011;17114;52.314;8.910;2023-06-22T14:12:34;20.80;;;15.70;;
30307;SDS011;17114;52.314;8.910;2023-06-22T14:15:01;19.15;;;15.98;;
30307;SDS011;17114;52.314;8.910;2023-06-22T14:17:28;20.30;;;18.13;;
30307;SDS011;17114;52.314;8.910;2023-06-22T14:19:55;19.92;;;17.17;;
30307;SDS011;17114;52.314;8.910;2023-06-22T14:22:22;19.83;;;17.67;;
30307;SDS011;17114;52.314;8.910;2023-06-22T14:24:49;20.10;;;16.17;;
30307;SDS011;17114;52.314;8.910;2023-06-22T14:27:16;21.95;;;15.50;;
30307;SDS011;17114;52.314;8.910;2023-06-22T14:29:43;23.20;;;16.33;;
30307;SDS011;17114;52.314;8.910;2023-06-22T14:32:09;19.85;;;17.10;;
30307;SDS011;17114;52.314;8.910;2023-06-22T14:34:37;25.48;;;19.73;;
30307;SDS011;17114;52.314;8.910;2023-06-22T14:37:08;23.08;;;18.48;;